Terminal Aerodrome Forecast
Issued by NWS Greer, SC

Home | Current Version | Previous Version | Text Only | Print | Product List | Glossary On
Versions: 1 2 3 4 5 6 7 8 9 10 11 12 13 14 15 16 17 18 19 20 21 22 23 24
000
FTUS42 KGSP 191700 RRA
TAFCLT
TAF
KCLT 191742Z 1918/2018 03012G20KT 3SM -RADZ BR BKN006 OVC015
     FM192100 03012G20KT 3SM -RA BR FEW006 OVC014
     FM200100 04014G22KT 6SM -RA BR OVC025
     FM200600 04012G20KT P6SM VCSH BKN040
     FM201400 05010KT P6SM SCT080=

USA.gov is the U.S. government's official web portal to all federal, state and local government web resources and services.